createdAt,value
2018-06-24T00:00:19.949Z,33.5
2018-06-24T00:01:09.778Z,33.4
2018-06-24T00:01:59.790Z,33.4
2018-06-24T00:02:49.617Z,33.4
2018-06-24T00:03:40.201Z,33.4
2018-06-24T00:04:30.241Z,33.4
2018-06-24T00:05:19.789Z,33.4
2018-06-24T00:06:10.421Z,33.4
2018-06-24T00:07:00.488Z,33.4
2018-06-24T00:07:50.022Z,33.4
2018-06-24T00:08:40.579Z,33.4
2018-06-24T00:09:30.117Z,33.4
2018-06-24T00:10:20.388Z,33.4
2018-06-24T00:11:10.751Z,33.4
2018-06-24T00:12:00.265Z,33.4
2018-06-24T00:12:50.875Z,33.4
2018-06-24T00:13:40.940Z,33.4
2018-06-24T00:14:30.219Z,33.4
2018-06-24T00:15:20.806Z,33.4
2018-06-24T00:16:10.589Z,33.4
2018-06-24T00:17:00.403Z,33.4
2018-06-24T00:17:50.986Z,33.4
2018-06-24T00:18:40.501Z,33.4
2018-06-24T00:19:30.561Z,33.4
2018-06-24T00:20:21.188Z,33.4
2018-06-24T00:21:11.239Z,33.4
2018-06-24T00:22:01.283Z,33.4
2018-06-24T00:22:50.244Z,33.4
2018-06-24T00:23:41.196Z,33.4
2018-06-24T00:24:31.200Z,33.4
2018-06-24T00:25:21.636Z,33.3
2018-06-24T00:26:11.345Z,33.4
2018-06-24T00:27:01.687Z,33.3
2018-06-24T00:27:51.732Z,33.3
2018-06-24T00:28:41.261Z,33.3
2018-06-24T00:29:31.927Z,33.3
2018-06-24T00:30:21.933Z,33.3
2018-06-24T00:31:11.843Z,33.3
2018-06-24T00:32:01.345Z,33.3
2018-06-24T00:32:51.093Z,33.3
2018-06-24T00:33:41.712Z,33.3
2018-06-24T00:34:32.006Z,33.3
2018-06-24T00:35:21.822Z,33.3
2018-06-24T00:36:12.452Z,33.3
2018-06-24T00:37:02.455Z,33.3
2018-06-24T00:37:52.530Z,33.3
2018-06-24T00:38:42.538Z,33.3
2018-06-24T00:39:32.603Z,33.3
2018-06-24T00:40:22.725Z,33.3
2018-06-24T00:41:12.739Z,33.3
2018-06-24T00:42:02.792Z,33.3
2018-06-24T00:42:52.915Z,33.3
2018-06-24T00:43:42.662Z,33.3
2018-06-24T00:44:32.731Z,33.3
2018-06-24T00:45:23.036Z,33.3
2018-06-24T00:46:13.163Z,33.3
2018-06-24T00:47:03.461Z,33.3
2018-06-24T00:47:53.529Z,33.2
2018-06-24T00:48:43.551Z,33.2
2018-06-24T00:49:33.362Z,33.2
2018-06-24T00:50:23.156Z,33.2
2018-06-24T00:51:13.459Z,33.2
2018-06-24T00:52:03.274Z,33.2
2018-06-24T00:52:53.886Z,33.2
2018-06-24T00:53:43.744Z,33.2
2018-06-24T00:54:33.198Z,33.1
2018-06-24T00:55:23.778Z,33.2
2018-06-24T00:56:13.919Z,33.2
2018-06-24T00:57:03.917Z,33.1
2018-06-24T00:57:54.024Z,33.1
2018-06-24T00:58:43.768Z,33.1
2018-06-24T00:59:34.071Z,33.1
2018-06-24T01:00:24.202Z,33.1
2018-06-24T01:01:14.515Z,33.2
2018-06-24T01:02:04.325Z,33.1
2018-06-24T01:02:54.117Z,33.1
2018-06-24T01:03:44.216Z,33.1
2018-06-24T01:04:33.970Z,33.1
2018-06-24T01:05:24.089Z,33.1
2018-06-24T01:06:14.147Z,33.1
2018-06-24T01:07:03.866Z,33.1
2018-06-24T01:07:55.062Z,33.1
2018-06-24T01:08:44.793Z,33.1
2018-06-24T01:09:34.592Z,33.1
2018-06-24T01:10:24.105Z,33.1
2018-06-24T01:11:14.777Z,33.1
2018-06-24T01:12:04.226Z,33.1
2018-06-24T01:12:55.147Z,33.1
2018-06-24T01:13:44.883Z,33.1
2018-06-24T01:14:35.226Z,33.1
2018-06-24T01:15:25.339Z,33.1
2018-06-24T01:16:14.819Z,33.1
2018-06-24T01:17:04.905Z,33.1
2018-06-24T01:17:55.791Z,33.1
2018-06-24T01:18:45.827Z,33.1
2018-06-24T01:19:35.685Z,33.1
2018-06-24T01:20:25.739Z,33.1
2018-06-24T01:21:15.736Z,33.1
2018-06-24T01:22:05.852Z,33.1
2018-06-24T01:22:55.871Z,33.1
2018-06-24T01:23:46.180Z,33.1
2018-06-24T01:24:36.264Z,33.1
2018-06-24T01:25:26.029Z,33.1
2018-06-24T01:26:15.828Z,33
2018-06-24T01:27:06.137Z,33
2018-06-24T01:27:56.274Z,33
2018-06-24T01:28:45.485Z,33
2018-06-24T01:29:36.380Z,33
2018-06-24T01:30:25.861Z,33
2018-06-24T01:31:15.681Z,33
2018-06-24T01:32:06.007Z,33
2018-06-24T01:32:56.661Z,33
2018-06-24T01:33:46.673Z,33
2018-06-24T01:34:37.033Z,33
2018-06-24T01:35:25.986Z,33
2018-06-24T01:36:16.597Z,32.9
2018-06-24T01:37:06.163Z,33
2018-06-24T01:37:56.731Z,33
2018-06-24T01:38:47.313Z,32.9
2018-06-24T01:39:36.848Z,33
2018-06-24T01:40:27.483Z,32.9
2018-06-24T01:41:17.550Z,32.9
2018-06-24T01:42:07.285Z,32.9
2018-06-24T01:42:57.614Z,32.9
2018-06-24T01:43:47.753Z,32.9
2018-06-24T01:44:37.509Z,32.9
2018-06-24T01:45:27.554Z,32.9
2018-06-24T01:46:17.882Z,32.9
2018-06-24T01:47:07.690Z,32.9
2018-06-24T01:47:57.985Z,32.9
2018-06-24T01:48:48.070Z,32.9
2018-06-24T01:49:37.638Z,32.9
2018-06-24T01:50:27.909Z,32.9
2018-06-24T01:51:18.026Z,32.9
2018-06-24T01:52:07.787Z,32.9
2018-06-24T01:52:57.249Z,32.9
2018-06-24T01:53:47.112Z,32.9
2018-06-24T01:54:37.702Z,32.9
2018-06-24T01:55:28.059Z,32.9
2018-06-24T01:56:18.660Z,32.9
2018-06-24T01:57:07.600Z,32.9
2018-06-24T01:57:58.221Z,32.9
2018-06-24T01:58:48.538Z,32.9
2018-06-24T01:59:38.072Z,32.9
2018-06-24T02:00:28.184Z,32.9
2018-06-24T02:01:18.440Z,32.9
2018-06-24T02:02:08.515Z,32.9
2018-06-24T02:02:59.202Z,32.8
2018-06-24T02:03:48.341Z,32.9
2018-06-24T02:04:38.452Z,32.9
2018-06-24T02:05:28.474Z,32.8
2018-06-24T02:06:19.121Z,32.9
2018-06-24T02:07:09.474Z,32.8
2018-06-24T02:07:58.386Z,32.8
2018-06-24T02:08:49.617Z,32.8
2018-06-24T02:09:39.050Z,32.8
2018-06-24T02:10:28.868Z,32.8
2018-06-24T02:11:18.917Z,32.8
2018-06-24T02:12:09.299Z,32.8
2018-06-24T02:12:59.384Z,32.8
2018-06-24T02:13:49.996Z,32.8
2018-06-24T02:14:40.031Z,32.8
2018-06-24T02:15:30.077Z,32.8
2018-06-24T02:16:20.162Z,32.8
2018-06-24T02:17:09.921Z,32.8
2018-06-24T02:18:00.221Z,32.8
2018-06-24T02:18:50.244Z,32.8
2018-06-24T02:19:40.105Z,32.8
2018-06-24T02:20:30.423Z,32.8
2018-06-24T02:21:19.960Z,32.8
2018-06-24T02:22:10.573Z,32.8
2018-06-24T02:22:59.820Z,32.8
2018-06-24T02:23:50.691Z,32.8
2018-06-24T02:24:40.215Z,32.8
2018-06-24T02:25:30.364Z,32.8
2018-06-24T02:26:20.624Z,32.8
2018-06-24T02:27:10.376Z,32.8
2018-06-24T02:28:00.449Z,32.8
2018-06-24T02:28:51.061Z,32.8
2018-06-24T02:29:40.601Z,32.8
2018-06-24T02:30:30.947Z,32.8
2018-06-24T02:31:20.976Z,32.7
2018-06-24T02:32:10.547Z,32.7
2018-06-24T02:33:00.802Z,32.7
2018-06-24T02:33:51.177Z,32.7
2018-06-24T02:34:40.681Z,32.7
2018-06-24T02:35:31.330Z,32.7
2018-06-24T02:36:21.121Z,32.7
2018-06-24T02:37:11.657Z,32.7
2018-06-24T02:38:00.641Z,32.7
2018-06-24T02:38:51.000Z,32.7
2018-06-24T02:39:41.582Z,32.7
2018-06-24T02:40:31.351Z,32.7
2018-06-24T02:41:20.892Z,32.7
2018-06-24T02:42:12.062Z,32.7
2018-06-24T02:43:02.129Z,32.6
2018-06-24T02:43:51.912Z,32.7
2018-06-24T02:44:42.232Z,32.7
2018-06-24T02:45:32.053Z,32.7
2018-06-24T02:46:22.391Z,32.6
2018-06-24T02:47:11.874Z,32.6
2018-06-24T02:48:01.974Z,32.6
2018-06-24T02:48:52.568Z,32.6
2018-06-24T02:49:42.649Z,32.6
2018-06-24T02:50:32.781Z,32.6
2018-06-24T02:51:21.381Z,32.6
2018-06-24T02:52:12.541Z,32.6
2018-06-24T02:53:02.090Z,32.6
2018-06-24T02:53:53.059Z,32.6
2018-06-24T02:54:42.216Z,32.6
2018-06-24T02:55:32.863Z,32.6
2018-06-24T02:56:23.138Z,32.6
2018-06-24T02:57:13.178Z,32.6
2018-06-24T02:58:02.693Z,32.6
2018-06-24T02:58:53.312Z,32.6
2018-06-24T02:59:42.870Z,32.6
2018-06-24T03:00:33.150Z,32.6
2018-06-24T03:01:22.672Z,32.6
2018-06-24T03:02:13.596Z,32.6
2018-06-24T03:03:02.833Z,32.6
2018-06-24T03:03:53.128Z,32.6
2018-06-24T03:04:42.907Z,32.6
2018-06-24T03:05:33.271Z,32.6
2018-06-24T03:06:23.104Z,32.6
2018-06-24T03:07:13.117Z,32.6
2018-06-24T03:08:04.067Z,32.6
2018-06-24T03:08:52.947Z,32.6
2018-06-24T03:09:43.597Z,32.6
2018-06-24T03:10:34.041Z,32.6
2018-06-24T03:11:23.701Z,32.6
2018-06-24T03:12:13.778Z,32.6
2018-06-24T03:13:04.141Z,32.5
2018-06-24T03:13:53.599Z,32.5
2018-06-24T03:14:44.008Z,32.5
2018-06-24T03:15:34.328Z,32.5
2018-06-24T03:16:24.075Z,32.5
2018-06-24T03:17:14.164Z,32.5
2018-06-24T03:18:04.203Z,32.5
2018-06-24T03:18:54.755Z,32.5
2018-06-24T03:19:44.908Z,32.4
2018-06-24T03:20:34.647Z,32.5
2018-06-24T03:21:24.195Z,32.4
2018-06-24T03:22:14.752Z,32.5
2018-06-24T03:23:04.067Z,32.5
2018-06-24T03:23:54.037Z,32.5
2018-06-24T03:24:44.406Z,32.4
2018-06-24T03:25:34.897Z,32.4
2018-06-24T03:26:24.513Z,32.4
2018-06-24T03:27:15.400Z,32.4
2018-06-24T03:28:05.210Z,32.4
2018-06-24T03:28:55.493Z,32.4
2018-06-24T03:29:44.188Z,32.4
2018-06-24T03:30:35.867Z,32.4
2018-06-24T03:31:25.186Z,32.4
2018-06-24T03:32:15.259Z,32.4
2018-06-24T03:33:05.889Z,32.4
2018-06-24T03:33:55.608Z,32.4
2018-06-24T03:34:45.945Z,32.4
2018-06-24T03:35:36.004Z,32.4
2018-06-24T03:36:25.912Z,32.4
2018-06-24T03:37:15.898Z,32.4
2018-06-24T03:38:06.205Z,32.4
2018-06-24T03:38:56.286Z,32.4
2018-06-24T03:39:46.326Z,32.4
2018-06-24T03:40:36.390Z,32.4
2018-06-24T03:41:26.193Z,32.4
2018-06-24T03:42:16.232Z,32.4
2018-06-24T03:43:06.607Z,32.4
2018-06-24T03:43:56.728Z,32.4
2018-06-24T03:44:45.845Z,32.4
2018-06-24T03:45:36.746Z,32.4
2018-06-24T03:46:26.274Z,32.3
2018-06-24T03:47:16.384Z,32.3
2018-06-24T03:48:06.978Z,32.3
2018-06-24T03:48:57.092Z,32.3
2018-06-24T03:49:46.598Z,32.3
2018-06-24T03:50:37.192Z,32.4
2018-06-24T03:51:26.662Z,32.3
2018-06-24T03:52:17.016Z,32.3
2018-06-24T03:53:07.112Z,32.3
2018-06-24T03:53:57.157Z,32.3
2018-06-24T03:54:46.636Z,32.3
2018-06-24T03:55:37.004Z,32.3
2018-06-24T03:56:26.776Z,32.3
2018-06-24T03:57:17.370Z,32.3
2018-06-24T03:58:08.100Z,32.3
2018-06-24T03:58:56.701Z,32.3
2018-06-24T03:59:47.822Z,32.3
2018-06-24T04:00:37.066Z,32.3
2018-06-24T04:01:27.412Z,32.3
2018-06-24T04:02:16.922Z,32.3
2018-06-24T04:03:07.812Z,32.3
2018-06-24T04:03:58.182Z,32.3
2018-06-24T04:04:48.758Z,32.3
2018-06-24T04:05:37.183Z,32.3
2018-06-24T04:06:27.273Z,32.3
2018-06-24T04:07:18.432Z,32.3
2018-06-24T04:08:08.555Z,32.3
2018-06-24T04:08:57.989Z,32.3
2018-06-24T04:09:48.620Z,32.3
2018-06-24T04:10:38.687Z,32.3
2018-06-24T04:11:28.482Z,32.3
2018-06-24T04:12:17.949Z,32.3
2018-06-24T04:13:07.999Z,32.3
2018-06-24T04:13:58.621Z,32.3
2018-06-24T04:14:48.138Z,32.2
2018-06-24T04:15:38.486Z,32.3
2018-06-24T04:16:28.568Z,32.2
2018-06-24T04:17:18.577Z,32.2
2018-06-24T04:18:08.436Z,32.2
2018-06-24T04:18:58.676Z,32.2
2018-06-24T04:19:48.796Z,32.2
2018-06-24T04:20:39.119Z,32.2
2018-06-24T04:21:29.470Z,32.2
2018-06-24T04:22:19.344Z,32.2
2018-06-24T04:23:08.769Z,32.2
2018-06-24T04:23:59.326Z,32.2
2018-06-24T04:24:49.146Z,32.2
2018-06-24T04:25:40.123Z,32.2
2018-06-24T04:26:28.779Z,32.2
2018-06-24T04:27:19.401Z,32.2
2018-06-24T04:28:09.502Z,32.1
2018-06-24T04:28:59.537Z,32.1
2018-06-24T04:29:49.604Z,32.1
2018-06-24T04:30:39.674Z,32.2
2018-06-24T04:31:29.452Z,32.1
2018-06-24T04:32:19.837Z,32.1
2018-06-24T04:33:09.321Z,32.1
2018-06-24T04:33:59.348Z,32.1
2018-06-24T04:34:49.940Z,32.1
2018-06-24T04:35:40.588Z,32.1
2018-06-24T04:36:30.016Z,32.1
2018-06-24T04:37:19.578Z,32.1
2018-06-24T04:38:10.728Z,32.1
2018-06-24T04:39:00.826Z,32.1
2018-06-24T04:39:50.893Z,32.1
2018-06-24T04:40:40.074Z,32.1
2018-06-24T04:41:30.670Z,32.1
2018-06-24T04:42:20.189Z,32.1
2018-06-24T04:43:10.017Z,32.1
2018-06-24T04:44:00.854Z,32.1
2018-06-24T04:44:51.202Z,32.1
2018-06-24T04:45:40.990Z,32.1
2018-06-24T04:46:31.044Z,32.1
2018-06-24T04:47:21.397Z,32.1
2018-06-24T04:48:11.230Z,32.1
2018-06-24T04:49:01.276Z,32.1
2018-06-24T04:49:51.606Z,32.1
2018-06-24T04:50:41.633Z,32.1
2018-06-24T04:51:31.202Z,32.1
2018-06-24T04:52:21.471Z,32.1
2018-06-24T04:53:11.849Z,32.1
2018-06-24T04:54:01.581Z,32.1
2018-06-24T04:54:51.124Z,32.1
2018-06-24T04:55:42.037Z,32.1
2018-06-24T04:56:32.087Z,32
2018-06-24T04:57:22.154Z,32
2018-06-24T04:58:11.071Z,32
2018-06-24T04:59:02.248Z,32.1
2018-06-24T04:59:51.781Z,32
2018-06-24T05:00:42.407Z,32
2018-06-24T05:01:31.348Z,32
2018-06-24T05:02:21.438Z,32
2018-06-24T05:03:11.722Z,32
2018-06-24T05:04:02.088Z,32
2018-06-24T05:04:52.721Z,32
2018-06-24T05:05:42.622Z,32
2018-06-24T05:06:33.432Z,32
2018-06-24T05:07:22.892Z,32
2018-06-24T05:08:12.669Z,32
2018-06-24T05:09:02.466Z,32
2018-06-24T05:09:51.975Z,31.9
2018-06-24T05:10:43.144Z,31.9
2018-06-24T05:11:32.929Z,31.9
2018-06-24T05:12:23.255Z,31.9
2018-06-24T05:13:13.068Z,31.9
2018-06-24T05:14:02.355Z,31.9
2018-06-24T05:14:53.516Z,31.9
2018-06-24T05:15:43.560Z,31.9
2018-06-24T05:16:33.022Z,31.9
2018-06-24T05:17:22.820Z,31.9
2018-06-24T05:18:12.888Z,31.9
2018-06-24T05:19:02.372Z,31.9
2018-06-24T05:19:53.245Z,31.9
2018-06-24T05:20:43.910Z,31.9
2018-06-24T05:21:33.988Z,31.9
2018-06-24T05:22:23.480Z,31.9
2018-06-24T05:23:13.526Z,31.9
2018-06-24T05:24:03.869Z,31.9
2018-06-24T05:24:54.183Z,31.9
2018-06-24T05:25:44.226Z,31.9
2018-06-24T05:26:34.109Z,31.9
2018-06-24T05:27:23.826Z,31.9
2018-06-24T05:28:14.204Z,31.9
2018-06-24T05:29:03.755Z,31.9
2018-06-24T05:29:53.845Z,31.9
2018-06-24T05:30:43.884Z,31.9
2018-06-24T05:31:33.121Z,31.9
2018-06-24T05:32:23.989Z,31.9
2018-06-24T05:33:14.337Z,31.9
2018-06-24T05:34:04.424Z,31.8
2018-06-24T05:34:53.639Z,31.9
2018-06-24T05:35:44.992Z,31.8
2018-06-24T05:36:35.056Z,31.8
2018-06-24T05:37:24.342Z,31.8
2018-06-24T05:38:15.198Z,31.8
2018-06-24T05:39:05.258Z,31.8
2018-06-24T05:39:54.896Z,31.8
2018-06-24T05:40:45.141Z,31.8
2018-06-24T05:41:34.586Z,31.8
2018-06-24T05:42:25.525Z,31.8
2018-06-24T05:43:15.901Z,31.8
2018-06-24T05:44:05.062Z,31.7
2018-06-24T05:44:55.180Z,31.7
2018-06-24T05:45:45.864Z,31.7
2018-06-24T05:46:35.320Z,31.7
2018-06-24T05:47:25.888Z,31.6
2018-06-24T05:48:15.967Z,31.6
2018-06-24T05:49:05.755Z,31.3
2018-06-24T05:49:55.281Z,23.9
2018-06-24T05:50:46.201Z,29
2018-06-24T05:51:35.939Z,32.3
2018-06-24T05:52:25.458Z,31.8
2018-06-24T05:53:15.225Z,29.8
2018-06-24T05:54:06.131Z,28.8
2018-06-24T05:54:56.177Z,28.3
2018-06-24T05:55:45.949Z,28
2018-06-24T05:56:36.566Z,27.9
2018-06-24T05:57:26.140Z,27.9
2018-06-24T05:58:16.451Z,27.9
2018-06-24T05:59:06.191Z,27.9
2018-06-24T05:59:56.295Z,28
2018-06-24T06:00:46.872Z,28.1
2018-06-24T06:01:36.912Z,28.2
2018-06-24T06:02:27.044Z,28.3
2018-06-24T06:03:16.571Z,28.5
2018-06-24T06:04:06.910Z,28.6
2018-06-24T06:04:57.205Z,28.8
2018-06-24T06:06:37.375Z,29.3
2018-06-24T06:07:27.164Z,34.1
2018-06-24T06:08:17.213Z,35.3
2018-06-24T06:09:07.555Z,35
2018-06-24T06:09:57.125Z,34.3
2018-06-24T06:10:47.509Z,33.6
2018-06-24T06:11:37.463Z,33.4
2018-06-24T06:12:27.509Z,33.7
2018-06-24T06:13:17.945Z,34.3
2018-06-24T06:14:07.683Z,34.6
2018-06-24T06:14:58.057Z,34.9
2018-06-24T06:15:47.755Z,34.9
2018-06-24T06:16:37.844Z,34.9
2018-06-24T06:17:28.114Z,35
2018-06-24T06:18:18.202Z,35.1
2018-06-24T06:19:07.948Z,35.3
2018-06-24T06:19:58.342Z,35.4
2018-06-24T06:20:48.152Z,35.6
2018-06-24T06:21:37.944Z,35.8
2018-06-24T06:22:28.511Z,35.9
2018-06-24T06:23:18.281Z,36
2018-06-24T06:24:08.759Z,36.1
2018-06-24T06:24:58.178Z,36.3
2018-06-24T06:25:48.763Z,36.4
2018-06-24T06:26:38.836Z,36.6
2018-06-24T06:27:28.618Z,36.8
2018-06-24T06:28:18.666Z,36.9
2018-06-24T06:29:08.488Z,37
2018-06-24T06:29:58.625Z,37.2
2018-06-24T06:30:48.852Z,37.3
2018-06-24T06:31:39.211Z,37.4
2018-06-24T06:32:28.733Z,37.6
2018-06-24T06:33:18.535Z,37.8
2018-06-24T06:34:08.576Z,37.9
2018-06-24T06:34:58.899Z,38.1
2018-06-24T06:35:48.958Z,38.2
2018-06-24T06:36:39.359Z,38.4
2018-06-24T06:37:29.408Z,38.5
2018-06-24T06:38:19.693Z,38.7
2018-06-24T06:39:08.715Z,38.8
2018-06-24T06:39:59.862Z,38.9
2018-06-24T06:40:49.677Z,39.1
2018-06-24T06:41:39.383Z,39.2
2018-06-24T06:42:29.485Z,39.3
2018-06-24T06:43:19.781Z,39.4
2018-06-24T06:44:09.863Z,39.6
2018-06-24T06:45:01.341Z,39.8
2018-06-24T06:45:52.026Z,39.9
2018-06-24T06:46:39.203Z,40
2018-06-24T06:47:30.163Z,40.1
2018-06-24T06:48:19.930Z,40.3
2018-06-24T06:49:10.545Z,40.3
2018-06-24T06:49:59.466Z,40.5
2018-06-24T06:50:50.686Z,40.6
2018-06-24T06:51:40.731Z,40.8
2018-06-24T06:52:30.255Z,40.8
2018-06-24T06:53:19.896Z,40.9
2018-06-24T06:54:10.365Z,41.1
2018-06-24T06:55:00.708Z,41.2
2018-06-24T06:55:49.947Z,41.3
2018-06-24T06:56:39.700Z,41.4
2018-06-24T06:57:29.932Z,41.6
2018-06-24T06:58:20.669Z,41.8
2018-06-24T06:59:10.734Z,41.9
2018-06-24T07:00:01.168Z,42
2018-06-24T07:00:51.424Z,42.1
2018-06-24T07:01:40.732Z,42.3
2018-06-24T07:02:31.251Z,42.4
2018-06-24T07:03:22.269Z,42.6
2018-06-24T07:04:11.663Z,42.7
2018-06-24T07:05:01.172Z,42.8
2018-06-24T07:05:52.216Z,42.9
2018-06-24T07:06:41.883Z,43.1
2018-06-24T07:07:31.967Z,43.2
2018-06-24T07:08:21.731Z,43.3
2018-06-24T07:09:11.485Z,43.4
2018-06-24T07:10:01.811Z,43.6
2018-06-24T07:10:51.918Z,43.7
2018-06-24T07:11:41.534Z,43.8
2018-06-24T07:12:31.514Z,43.9
2018-06-24T07:13:21.827Z,44.1
2018-06-24T07:14:11.861Z,44.3
2018-06-24T07:15:01.947Z,44.3
2018-06-24T07:15:52.062Z,44.4
2018-06-24T07:16:41.819Z,44.6
2018-06-24T07:17:32.430Z,44.7
2018-06-24T07:18:22.052Z,44.8
2018-06-24T07:19:12.138Z,44.9
2018-06-24T07:20:02.033Z,45.1
2018-06-24T07:20:52.438Z,45.2
2018-06-24T07:21:42.793Z,45.3
2018-06-24T07:22:32.306Z,45.4
2018-06-24T07:23:21.456Z,45.5
2018-06-24T07:24:12.168Z,45.7
2018-06-24T07:25:02.169Z,45.8
2018-06-24T07:25:53.308Z,45.9
2018-06-24T07:26:42.815Z,46.1
2018-06-24T07:27:32.853Z,46.3
2018-06-24T07:28:23.495Z,46.4
2018-06-24T07:29:12.710Z,46.6
2018-06-24T07:30:03.378Z,46.8
2018-06-24T07:30:53.704Z,46.9
2018-06-24T07:31:43.473Z,47.1
2018-06-24T07:32:33.545Z,47.2
2018-06-24T07:33:24.107Z,47.4
2018-06-24T07:34:13.397Z,47.5
2018-06-24T07:35:03.486Z,47.6
2018-06-24T07:35:54.110Z,47.7
2018-06-24T07:36:44.117Z,47.7
2018-06-24T07:37:33.953Z,47.8
2018-06-24T07:38:23.692Z,48
2018-06-24T07:39:15.021Z,48.2
2018-06-24T07:40:04.155Z,48.4
2018-06-24T07:40:53.945Z,48.6
2018-06-24T07:41:44.278Z,48.7
2018-06-24T07:42:34.258Z,48.8
2018-06-24T07:43:23.857Z,49
2018-06-24T07:44:14.399Z,49.1
2018-06-24T07:45:04.458Z,49.3
2018-06-24T07:45:54.519Z,49.4
2018-06-24T07:46:44.112Z,49.6
2018-06-24T07:47:34.707Z,49.8
2018-06-24T07:48:24.279Z,49.9
2018-06-24T07:49:14.527Z,50
2018-06-24T07:50:04.373Z,50.1
2018-06-24T07:50:54.653Z,50
2018-06-24T07:51:44.455Z,49.9
2018-06-24T07:52:35.341Z,49.5
2018-06-24T07:53:24.830Z,48.8
2018-06-24T07:54:15.454Z,48.1
2018-06-24T07:55:05.236Z,48.1
2018-06-24T07:55:55.535Z,48.8
2018-06-24T07:56:45.098Z,49.7
2018-06-24T07:57:35.819Z,50.4
2018-06-24T07:58:25.772Z,50.9
2018-06-24T07:59:15.841Z,51.2
2018-06-24T08:00:05.639Z,51.5
2018-06-24T08:00:55.966Z,51.8
2018-06-24T08:01:45.476Z,52.1
2018-06-24T08:02:35.255Z,52.1
2018-06-24T08:03:27.210Z,51.9
2018-06-24T08:04:15.706Z,51.4
2018-06-24T08:05:05.768Z,50.8
2018-06-24T08:05:56.305Z,50.3
2018-06-24T08:06:46.395Z,49.9
2018-06-24T08:07:36.190Z,49.7
2018-06-24T08:08:26.507Z,49.9
2018-06-24T08:09:15.490Z,50.6
2018-06-24T08:10:06.112Z,51.4
2018-06-24T08:10:56.447Z,52.1
2018-06-24T08:11:46.532Z,52.4
2018-06-24T08:12:36.828Z,52.8
2018-06-24T08:13:26.492Z,53
2018-06-24T08:14:16.400Z,53.1
2018-06-24T08:15:07.051Z,53.4
2018-06-24T08:15:55.947Z,53.6
2018-06-24T08:16:46.613Z,53.8
2018-06-24T08:17:36.710Z,53.9
2018-06-24T08:18:27.248Z,54.1
2018-06-24T08:19:16.800Z,54.3
2018-06-24T08:20:06.919Z,54.4
2018-06-24T08:20:57.194Z,54.5
2018-06-24T08:21:47.530Z,54.6
2018-06-24T08:22:37.044Z,54.8
2018-06-24T08:23:27.086Z,54.9
2018-06-24T08:24:17.463Z,55
2018-06-24T08:25:07.266Z,55.1
2018-06-24T08:25:57.277Z,55.3
2018-06-24T08:26:47.625Z,55.3
2018-06-24T08:27:36.964Z,55.4
2018-06-24T08:28:27.750Z,55.5
2018-06-24T08:29:16.801Z,55.6
2018-06-24T08:30:07.909Z,55.6
2018-06-24T08:30:58.253Z,55.7
2018-06-24T08:31:48.577Z,55.8
2018-06-24T08:32:38.111Z,55.9
2018-06-24T08:33:27.875Z,56
2018-06-24T08:34:18.202Z,56.1
2018-06-24T08:35:07.780Z,56.1
2018-06-24T08:35:57.796Z,55.9
2018-06-24T08:36:48.672Z,55.4
2018-06-24T08:37:37.692Z,55.5
2018-06-24T08:38:28.267Z,55.9
2018-06-24T08:39:18.630Z,56.4
2018-06-24T08:40:08.949Z,56.7
2018-06-24T08:40:57.713Z,56.9
2018-06-24T08:41:49.056Z,56.9
2018-06-24T08:42:39.180Z,57.1
2018-06-24T08:43:28.630Z,57.1
2018-06-24T08:44:19.228Z,57.3
2018-06-24T08:45:09.318Z,57.3
2018-06-24T08:45:58.324Z,57.4
2018-06-24T08:46:48.961Z,57.6
2018-06-24T08:47:39.544Z,57.7
2018-06-24T08:48:28.502Z,57.8
2018-06-24T08:49:19.409Z,57.9
2018-06-24T08:50:09.223Z,57.9
2018-06-24T08:50:59.737Z,58.1
2018-06-24T08:51:48.308Z,58.1
2018-06-24T08:52:39.316Z,58.2
2018-06-24T08:53:29.116Z,58.3
2018-06-24T08:54:20.231Z,58.4
2018-06-24T08:55:09.890Z,58.4
2018-06-24T08:55:59.050Z,58.3
2018-06-24T08:56:50.212Z,58.4
2018-06-24T08:58:29.494Z,58.8
2018-06-24T08:59:20.150Z,58.9
2018-06-24T09:00:10.180Z,59.1
2018-06-24T09:01:00.553Z,59.1
2018-06-24T09:01:50.362Z,59.2
2018-06-24T09:02:40.110Z,59.3
2018-06-24T09:03:29.489Z,59.3
2018-06-24T09:04:20.214Z,59.3
2018-06-24T09:05:10.852Z,59.4
2018-06-24T09:06:00.651Z,59.4
2018-06-24T09:06:49.352Z,59.5
2018-06-24T09:07:40.328Z,59.5
2018-06-24T09:08:31.119Z,59.6
2018-06-24T09:09:21.142Z,59.6
2018-06-24T09:10:11.197Z,59.6
2018-06-24T09:11:01.306Z,59.6
2018-06-24T09:11:51.040Z,59.7
2018-06-24T09:12:41.157Z,59.8
2018-06-24T09:13:30.644Z,59.8
2018-06-24T09:14:20.888Z,59.9
